sensor_id;sensor_type;location;lat;lon;timestamp;P1;durP1;ratioP1;P2;durP2;ratioP2
20445;SDS011;10382;49.140;9.234;2024-03-06T00:00:01;5.40;;;3.70;;
20445;SDS011;10382;49.140;9.234;2024-03-06T00:02:29;5.23;;;3.33;;
20445;SDS011;10382;49.140;9.234;2024-03-06T00:04:56;12.07;;;3.57;;
20445;SDS011;10382;49.140;9.234;2024-03-06T00:07:25;4.20;;;3.80;;
20445;SDS011;10382;49.140;9.234;2024-03-06T00:09:52;5.40;;;3.70;;
20445;SDS011;10382;49.140;9.234;2024-03-06T00:12:19;8.80;;;4.13;;
20445;SDS011;10382;49.140;9.234;2024-03-06T00:14:46;4.07;;;3.77;;
20445;SDS011;10382;49.140;9.234;2024-03-06T00:17:13;4.63;;;3.40;;
20445;SDS011;10382;49.140;9.234;2024-03-06T00:19:40;5.20;;;3.97;;
20445;SDS011;10382;49.140;9.234;2024-03-06T00:22:08;7.70;;;4.77;;
20445;SDS011;10382;49.140;9.234;2024-03-06T00:24:37;5.20;;;4.57;;
20445;SDS011;10382;49.140;9.234;2024-03-06T00:27:04;11.63;;;5.13;;
20445;SDS011;10382;49.140;9.234;2024-03-06T00:29:31;5.00;;;3.50;;
20445;SDS011;10382;49.140;9.234;2024-03-06T00:31:58;14.27;;;5.30;;
20445;SDS011;10382;49.140;9.234;2024-03-06T00:34:25;7.23;;;5.27;;
20445;SDS011;10382;49.140;9.234;2024-03-06T00:36:52;5.53;;;4.40;;
20445;SDS011;10382;49.140;9.234;2024-03-06T00:39:20;4.00;;;3.70;;
20445;SDS011;10382;49.140;9.234;2024-03-06T00:41:49;3.80;;;3.50;;
20445;SDS011;10382;49.140;9.234;2024-03-06T00:44:16;7.93;;;4.73;;
20445;SDS011;10382;49.140;9.234;2024-03-06T00:46:43;9.70;;;3.80;;
20445;SDS011;10382;49.140;9.234;2024-03-06T00:49:12;7.90;;;4.00;;
20445;SDS011;10382;49.140;9.234;2024-03-06T00:51:39;17.80;;;4.10;;
20445;SDS011;10382;49.140;9.234;2024-03-06T00:54:06;7.67;;;6.33;;
20445;SDS011;10382;49.140;9.234;2024-03-06T00:56:33;9.03;;;4.67;;
20445;SDS011;10382;49.140;9.234;2024-03-06T00:59:05;5.97;;;5.43;;
20445;SDS011;10382;49.140;9.234;2024-03-06T01:01:32;11.30;;;6.60;;
20445;SDS011;10382;49.140;9.234;2024-03-06T01:03:59;5.43;;;4.87;;
20445;SDS011;10382;49.140;9.234;2024-03-06T01:06:26;10.67;;;6.37;;
20445;SDS011;10382;49.140;9.234;2024-03-06T01:08:53;11.90;;;6.87;;
20445;SDS011;10382;49.140;9.234;2024-03-06T01:11:22;22.57;;;8.47;;
20445;SDS011;10382;49.140;9.234;2024-03-06T01:13:49;10.00;;;5.50;;
20445;SDS011;10382;49.140;9.234;2024-03-06T01:16:17;12.27;;;6.60;;
20445;SDS011;10382;49.140;9.234;2024-03-06T01:18:44;11.47;;;6.27;;
20445;SDS011;10382;49.140;9.234;2024-03-06T01:21:11;12.60;;;6.00;;
20445;SDS011;10382;49.140;9.234;2024-03-06T01:23:38;10.93;;;5.47;;
20445;SDS011;10382;49.140;9.234;2024-03-06T01:26:05;7.73;;;5.90;;
20445;SDS011;10382;49.140;9.234;2024-03-06T01:28:32;9.50;;;5.90;;
20445;SDS011;10382;49.140;9.234;2024-03-06T01:30:59;9.40;;;5.60;;
20445;SDS011;10382;49.140;9.234;2024-03-06T01:33:27;9.63;;;5.70;;
20445;SDS011;10382;49.140;9.234;2024-03-06T01:35:54;5.73;;;5.10;;
20445;SDS011;10382;49.140;9.234;2024-03-06T01:38:21;10.00;;;6.03;;
20445;SDS011;10382;49.140;9.234;2024-03-06T01:40:48;7.00;;;5.20;;
20445;SDS011;10382;49.140;9.234;2024-03-06T01:43:21;21.10;;;6.40;;
20445;SDS011;10382;49.140;9.234;2024-03-06T01:45:50;8.00;;;5.27;;
20445;SDS011;10382;49.140;9.234;2024-03-06T01:48:19;13.67;;;7.47;;
20445;SDS011;10382;49.140;9.234;2024-03-06T01:50:49;11.30;;;7.37;;
20445;SDS011;10382;49.140;9.234;2024-03-06T01:53:16;12.33;;;6.97;;
20445;SDS011;10382;49.140;9.234;2024-03-06T01:55:44;9.37;;;6.70;;
20445;SDS011;10382;49.140;9.234;2024-03-06T01:58:11;9.23;;;6.97;;
20445;SDS011;10382;49.140;9.234;2024-03-06T02:00:39;7.73;;;5.83;;
20445;SDS011;10382;49.140;9.234;2024-03-06T02:03:06;9.70;;;5.40;;
20445;SDS011;10382;49.140;9.234;2024-03-06T02:05:34;5.70;;;5.13;;
20445;SDS011;10382;49.140;9.234;2024-03-06T02:08:03;4.70;;;4.40;;
20445;SDS011;10382;49.140;9.234;2024-03-06T02:10:32;13.10;;;6.10;;
20445;SDS011;10382;49.140;9.234;2024-03-06T02:13:00;13.30;;;6.20;;
20445;SDS011;10382;49.140;9.234;2024-03-06T02:15:26;18.57;;;7.40;;
20445;SDS011;10382;49.140;9.234;2024-03-06T02:17:53;7.47;;;5.77;;
20445;SDS011;10382;49.140;9.234;2024-03-06T02:20:23;20.13;;;8.23;;
20445;SDS011;10382;49.140;9.234;2024-03-06T02:22:50;11.30;;;6.73;;
20445;SDS011;10382;49.140;9.234;2024-03-06T02:25:17;20.57;;;7.10;;
20445;SDS011;10382;49.140;9.234;2024-03-06T02:27:45;11.30;;;5.70;;
20445;SDS011;10382;49.140;9.234;2024-03-06T02:30:13;31.47;;;9.80;;
20445;SDS011;10382;49.140;9.234;2024-03-06T02:32:40;18.43;;;6.57;;
20445;SDS011;10382;49.140;9.234;2024-03-06T02:35:08;27.30;;;9.30;;
20445;SDS011;10382;49.140;9.234;2024-03-06T02:37:37;17.33;;;7.50;;
20445;SDS011;10382;49.140;9.234;2024-03-06T02:40:05;10.93;;;5.00;;
20445;SDS011;10382;49.140;9.234;2024-03-06T02:42:35;5.87;;;3.97;;
20445;SDS011;10382;49.140;9.234;2024-03-06T02:45:04;8.27;;;5.80;;
20445;SDS011;10382;49.140;9.234;2024-03-06T02:47:31;4.93;;;4.50;;
20445;SDS011;10382;49.140;9.234;2024-03-06T02:49:59;7.97;;;5.93;;
20445;SDS011;10382;49.140;9.234;2024-03-06T02:52:26;11.23;;;6.30;;
20445;SDS011;10382;49.140;9.234;2024-03-06T02:54:54;7.13;;;6.43;;
20445;SDS011;10382;49.140;9.234;2024-03-06T02:57:22;9.23;;;6.47;;
20445;SDS011;10382;49.140;9.234;2024-03-06T02:59:49;10.70;;;6.17;;
20445;SDS011;10382;49.140;9.234;2024-03-06T03:02:16;6.67;;;5.90;;
20445;SDS011;10382;49.140;9.234;2024-03-06T03:04:43;9.63;;;5.40;;
20445;SDS011;10382;49.140;9.234;2024-03-06T03:07:10;18.70;;;5.97;;
20445;SDS011;10382;49.140;9.234;2024-03-06T03:09:37;9.63;;;5.40;;
20445;SDS011;10382;49.140;9.234;2024-03-06T03:12:05;11.00;;;6.53;;
20445;SDS011;10382;49.140;9.234;2024-03-06T03:14:32;7.93;;;5.30;;
20445;SDS011;10382;49.140;9.234;2024-03-06T03:16:59;8.73;;;5.40;;
20445;SDS011;10382;49.140;9.234;2024-03-06T03:19:27;6.50;;;5.07;;
20445;SDS011;10382;49.140;9.234;2024-03-06T03:21:54;7.03;;;5.70;;
20445;SDS011;10382;49.140;9.234;2024-03-06T03:24:22;8.80;;;5.27;;
20445;SDS011;10382;49.140;9.234;2024-03-06T03:26:50;12.00;;;5.70;;
20445;SDS011;10382;49.140;9.234;2024-03-06T03:29:19;10.07;;;5.67;;
20445;SDS011;10382;49.140;9.234;2024-03-06T03:31:46;6.77;;;6.07;;
20445;SDS011;10382;49.140;9.234;2024-03-06T03:34:13;8.90;;;7.37;;
20445;SDS011;10382;49.140;9.234;2024-03-06T03:36:40;8.83;;;6.23;;
20445;SDS011;10382;49.140;9.234;2024-03-06T03:39:07;5.60;;;5.00;;
20445;SDS011;10382;49.140;9.234;2024-03-06T03:41:42;5.93;;;5.30;;
20445;SDS011;10382;49.140;9.234;2024-03-06T03:44:10;5.30;;;4.70;;
20445;SDS011;10382;49.140;9.234;2024-03-06T03:46:39;5.50;;;5.00;;
20445;SDS011;10382;49.140;9.234;2024-03-06T03:49:06;5.63;;;4.80;;
20445;SDS011;10382;49.140;9.234;2024-03-06T03:51:33;6.70;;;5.40;;
20445;SDS011;10382;49.140;9.234;2024-03-06T03:54:00;6.17;;;5.50;;
20445;SDS011;10382;49.140;9.234;2024-03-06T03:56:27;6.70;;;5.03;;
20445;SDS011;10382;49.140;9.234;2024-03-06T03:58:55;6.17;;;5.67;;
20445;SDS011;10382;49.140;9.234;2024-03-06T04:01:22;6.13;;;5.00;;
20445;SDS011;10382;49.140;9.234;2024-03-06T04:03:51;9.70;;;5.50;;
20445;SDS011;10382;49.140;9.234;2024-03-06T04:06:18;9.30;;;5.53;;
20445;SDS011;10382;49.140;9.234;2024-03-06T04:08:45;8.60;;;6.03;;
20445;SDS011;10382;49.140;9.234;2024-03-06T04:11:12;10.87;;;5.33;;
20445;SDS011;10382;49.140;9.234;2024-03-06T04:13:38;8.90;;;5.77;;
20445;SDS011;10382;49.140;9.234;2024-03-06T04:16:05;10.43;;;7.83;;
20445;SDS011;10382;49.140;9.234;2024-03-06T04:18:33;9.00;;;6.47;;
20445;SDS011;10382;49.140;9.234;2024-03-06T04:21:03;13.80;;;6.90;;
20445;SDS011;10382;49.140;9.234;2024-03-06T04:23:30;9.80;;;6.83;;
20445;SDS011;10382;49.140;9.234;2024-03-06T04:25:57;12.73;;;7.30;;
20445;SDS011;10382;49.140;9.234;2024-03-06T04:28:24;8.97;;;6.67;;
20445;SDS011;10382;49.140;9.234;2024-03-06T04:30:51;8.00;;;6.30;;
20445;SDS011;10382;49.140;9.234;2024-03-06T04:33:18;7.60;;;6.80;;
20445;SDS011;10382;49.140;9.234;2024-03-06T04:35:45;7.17;;;6.07;;
20445;SDS011;10382;49.140;9.234;2024-03-06T04:38:13;10.90;;;6.63;;
20445;SDS011;10382;49.140;9.234;2024-03-06T04:40:40;9.67;;;6.53;;
20445;SDS011;10382;49.140;9.234;2024-03-06T04:43:07;10.53;;;7.17;;
20445;SDS011;10382;49.140;9.234;2024-03-06T04:45:34;6.80;;;6.00;;
20445;SDS011;10382;49.140;9.234;2024-03-06T04:48:01;23.07;;;7.20;;
20445;SDS011;10382;49.140;9.234;2024-03-06T04:50:28;7.83;;;6.47;;
20445;SDS011;10382;49.140;9.234;2024-03-06T04:52:55;7.90;;;7.07;;
20445;SDS011;10382;49.140;9.234;2024-03-06T04:55:23;8.40;;;6.43;;
20445;SDS011;10382;49.140;9.234;2024-03-06T04:57:51;8.60;;;7.17;;
20445;SDS011;10382;49.140;9.234;2024-03-06T05:00:19;16.73;;;7.90;;
20445;SDS011;10382;49.140;9.234;2024-03-06T05:02:46;9.47;;;7.33;;
20445;SDS011;10382;49.140;9.234;2024-03-06T05:05:14;7.50;;;6.67;;
20445;SDS011;10382;49.140;9.234;2024-03-06T05:07:41;7.63;;;6.93;;
20445;SDS011;10382;49.140;9.234;2024-03-06T05:10:08;10.53;;;7.17;;
20445;SDS011;10382;49.140;9.234;2024-03-06T05:12:37;10.27;;;7.50;;
20445;SDS011;10382;49.140;9.234;2024-03-06T05:15:04;16.27;;;9.00;;
20445;SDS011;10382;49.140;9.234;2024-03-06T05:17:33;7.83;;;6.97;;
20445;SDS011;10382;49.140;9.234;2024-03-06T05:20:00;14.73;;;8.97;;
20445;SDS011;10382;49.140;9.234;2024-03-06T05:22:28;13.17;;;9.10;;
20445;SDS011;10382;49.140;9.234;2024-03-06T05:24:55;12.93;;;8.03;;
20445;SDS011;10382;49.140;9.234;2024-03-06T05:27:23;22.90;;;7.43;;
20445;SDS011;10382;49.140;9.234;2024-03-06T05:29:51;11.80;;;8.47;;
20445;SDS011;10382;49.140;9.234;2024-03-06T05:32:19;18.23;;;7.80;;
20445;SDS011;10382;49.140;9.234;2024-03-06T05:34:46;11.83;;;8.73;;
20445;SDS011;10382;49.140;9.234;2024-03-06T05:37:13;17.43;;;10.30;;
20445;SDS011;10382;49.140;9.234;2024-03-06T05:39:40;12.03;;;8.37;;
20445;SDS011;10382;49.140;9.234;2024-03-06T05:42:07;10.40;;;8.80;;
20445;SDS011;10382;49.140;9.234;2024-03-06T05:44:34;14.20;;;9.50;;
20445;SDS011;10382;49.140;9.234;2024-03-06T05:47:02;13.80;;;10.77;;
20445;SDS011;10382;49.140;9.234;2024-03-06T05:49:30;14.53;;;10.23;;
20445;SDS011;10382;49.140;9.234;2024-03-06T05:51:57;12.00;;;9.50;;
20445;SDS011;10382;49.140;9.234;2024-03-06T05:54:24;14.40;;;9.27;;
20445;SDS011;10382;49.140;9.234;2024-03-06T05:56:52;13.00;;;9.93;;
20445;SDS011;10382;49.140;9.234;2024-03-06T05:59:19;12.60;;;10.03;;
20445;SDS011;10382;49.140;9.234;2024-03-06T06:01:47;9.70;;;8.73;;
20445;SDS011;10382;49.140;9.234;2024-03-06T06:04:16;10.20;;;9.20;;
20445;SDS011;10382;49.140;9.234;2024-03-06T06:06:42;11.23;;;9.77;;
20445;SDS011;10382;49.140;9.234;2024-03-06T06:09:09;12.97;;;10.00;;
20445;SDS011;10382;49.140;9.234;2024-03-06T06:11:40;11.63;;;9.83;;
20445;SDS011;10382;49.140;9.234;2024-03-06T06:14:08;14.23;;;11.07;;
20445;SDS011;10382;49.140;9.234;2024-03-06T06:16:35;11.67;;;9.00;;
20445;SDS011;10382;49.140;9.234;2024-03-06T06:19:02;15.47;;;10.17;;
20445;SDS011;10382;49.140;9.234;2024-03-06T06:21:32;13.90;;;9.60;;
20445;SDS011;10382;49.140;9.234;2024-03-06T06:24:00;18.90;;;11.23;;
20445;SDS011;10382;49.140;9.234;2024-03-06T06:26:28;16.53;;;10.83;;
20445;SDS011;10382;49.140;9.234;2024-03-06T06:28:55;12.53;;;9.60;;
20445;SDS011;10382;49.140;9.234;2024-03-06T06:31:22;13.67;;;10.00;;
20445;SDS011;10382;49.140;9.234;2024-03-06T06:33:50;14.50;;;10.67;;
20445;SDS011;10382;49.140;9.234;2024-03-06T06:36:17;13.17;;;9.80;;
20445;SDS011;10382;49.140;9.234;2024-03-06T06:38:46;14.27;;;10.00;;
20445;SDS011;10382;49.140;9.234;2024-03-06T06:41:13;12.50;;;10.10;;
20445;SDS011;10382;49.140;9.234;2024-03-06T06:43:40;19.80;;;11.97;;
20445;SDS011;10382;49.140;9.234;2024-03-06T06:46:07;17.03;;;11.40;;
20445;SDS011;10382;49.140;9.234;2024-03-06T06:48:34;15.10;;;12.57;;
20445;SDS011;10382;49.140;9.234;2024-03-06T06:51:01;16.13;;;11.20;;
20445;SDS011;10382;49.140;9.234;2024-03-06T06:53:28;13.77;;;11.23;;
20445;SDS011;10382;49.140;9.234;2024-03-06T06:55:56;16.23;;;12.97;;
20445;SDS011;10382;49.140;9.234;2024-03-06T06:58:23;16.77;;;13.50;;
20445;SDS011;10382;49.140;9.234;2024-03-06T07:00:52;16.77;;;12.70;;
20445;SDS011;10382;49.140;9.234;2024-03-06T07:03:19;17.30;;;12.10;;
20445;SDS011;10382;49.140;9.234;2024-03-06T07:05:46;15.23;;;12.03;;
20445;SDS011;10382;49.140;9.234;2024-03-06T07:08:13;15.53;;;12.43;;
20445;SDS011;10382;49.140;9.234;2024-03-06T07:10:40;13.87;;;11.77;;
20445;SDS011;10382;49.140;9.234;2024-03-06T07:13:08;14.87;;;11.87;;
20445;SDS011;10382;49.140;9.234;2024-03-06T07:15:35;18.33;;;11.23;;
20445;SDS011;10382;49.140;9.234;2024-03-06T07:18:02;15.60;;;11.60;;
20445;SDS011;10382;49.140;9.234;2024-03-06T07:20:29;17.17;;;11.97;;
20445;SDS011;10382;49.140;9.234;2024-03-06T07:22:56;14.50;;;10.77;;
20445;SDS011;10382;49.140;9.234;2024-03-06T07:25:23;13.73;;;10.47;;
20445;SDS011;10382;49.140;9.234;2024-03-06T07:27:50;13.20;;;11.10;;
20445;SDS011;10382;49.140;9.234;2024-03-06T07:30:19;19.70;;;10.73;;
20445;SDS011;10382;49.140;9.234;2024-03-06T07:32:47;14.93;;;10.20;;
20445;SDS011;10382;49.140;9.234;2024-03-06T07:35:14;12.03;;;10.10;;
20445;SDS011;10382;49.140;9.234;2024-03-06T07:37:42;12.60;;;9.43;;
20445;SDS011;10382;49.140;9.234;2024-03-06T07:40:10;21.00;;;10.53;;
20445;SDS011;10382;49.140;9.234;2024-03-06T07:42:37;12.30;;;10.53;;
20445;SDS011;10382;49.140;9.234;2024-03-06T07:45:04;15.83;;;12.00;;
20445;SDS011;10382;49.140;9.234;2024-03-06T07:47:33;20.63;;;10.60;;
20445;SDS011;10382;49.140;9.234;2024-03-06T07:50:02;11.83;;;9.43;;
20445;SDS011;10382;49.140;9.234;2024-03-06T07:52:30;15.03;;;10.07;;
20445;SDS011;10382;49.140;9.234;2024-03-06T07:54:58;14.23;;;9.80;;
20445;SDS011;10382;49.140;9.234;2024-03-06T07:57:25;14.50;;;9.83;;
20445;SDS011;10382;49.140;9.234;2024-03-06T07:59:51;12.53;;;10.17;;
20445;SDS011;10382;49.140;9.234;2024-03-06T08:02:19;16.93;;;11.43;;
20445;SDS011;10382;49.140;9.234;2024-03-06T08:04:48;19.73;;;10.47;;
20445;SDS011;10382;49.140;9.234;2024-03-06T08:07:16;16.13;;;9.47;;
20445;SDS011;10382;49.140;9.234;2024-03-06T08:09:43;10.70;;;9.60;;
20445;SDS011;10382;49.140;9.234;2024-03-06T08:12:09;14.23;;;10.67;;
20445;SDS011;10382;49.140;9.234;2024-03-06T08:14:36;13.20;;;9.37;;
20445;SDS011;10382;49.140;9.234;2024-03-06T08:17:03;16.17;;;9.97;;
20445;SDS011;10382;49.140;9.234;2024-03-06T08:19:30;11.40;;;10.00;;
20445;SDS011;10382;49.140;9.234;2024-03-06T08:21:59;11.60;;;9.53;;
20445;SDS011;10382;49.140;9.234;2024-03-06T08:24:26;14.43;;;8.90;;
20445;SDS011;10382;49.140;9.234;2024-03-06T08:26:53;14.70;;;11.13;;
20445;SDS011;10382;49.140;9.234;2024-03-06T08:29:22;12.27;;;9.13;;
20445;SDS011;10382;49.140;9.234;2024-03-06T08:31:49;21.60;;;9.90;;
20445;SDS011;10382;49.140;9.234;2024-03-06T08:34:16;11.70;;;9.63;;
20445;SDS011;10382;49.140;9.234;2024-03-06T08:36:43;10.63;;;8.47;;
20445;SDS011;10382;49.140;9.234;2024-03-06T08:39:11;15.13;;;8.80;;
20445;SDS011;10382;49.140;9.234;2024-03-06T08:41:41;14.10;;;9.70;;
20445;SDS011;10382;49.140;9.234;2024-03-06T08:44:08;12.40;;;9.13;;
20445;SDS011;10382;49.140;9.234;2024-03-06T08:46:35;15.53;;;9.67;;
20445;SDS011;10382;49.140;9.234;2024-03-06T08:49:02;10.07;;;9.00;;
20445;SDS011;10382;49.140;9.234;2024-03-06T08:51:29;10.70;;;8.87;;
20445;SDS011;10382;49.140;9.234;2024-03-06T08:53:55;10.17;;;9.07;;
20445;SDS011;10382;49.140;9.234;2024-03-06T08:56:24;25.33;;;9.10;;
20445;SDS011;10382;49.140;9.234;2024-03-06T08:58:52;9.33;;;8.30;;
20445;SDS011;10382;49.140;9.234;2024-03-06T09:01:19;14.50;;;9.13;;
20445;SDS011;10382;49.140;9.234;2024-03-06T09:03:45;16.23;;;11.27;;
20445;SDS011;10382;49.140;9.234;2024-03-06T09:06:12;10.47;;;9.37;;
20445;SDS011;10382;49.140;9.234;2024-03-06T09:08:39;14.67;;;9.23;;
20445;SDS011;10382;49.140;9.234;2024-03-06T09:11:06;11.17;;;9.20;;
20445;SDS011;10382;49.140;9.234;2024-03-06T09:13:35;12.53;;;10.20;;
20445;SDS011;10382;49.140;9.234;2024-03-06T09:16:02;14.70;;;10.30;;
20445;SDS011;10382;49.140;9.234;2024-03-06T09:18:29;17.90;;;11.30;;
20445;SDS011;10382;49.140;9.234;2024-03-06T09:20:56;13.67;;;10.57;;
20445;SDS011;10382;49.140;9.234;2024-03-06T09:23:22;15.17;;;10.43;;
20445;SDS011;10382;49.140;9.234;2024-03-06T09:25:51;14.67;;;9.90;;
20445;SDS011;10382;49.140;9.234;2024-03-06T09:28:19;11.80;;;9.83;;
20445;SDS011;10382;49.140;9.234;2024-03-06T09:30:47;15.07;;;10.23;;
20445;SDS011;10382;49.140;9.234;2024-03-06T09:33:14;16.07;;;12.30;;
20445;SDS011;10382;49.140;9.234;2024-03-06T09:35:41;15.30;;;11.67;;
20445;SDS011;10382;49.140;9.234;2024-03-06T09:38:10;18.37;;;12.87;;
20445;SDS011;10382;49.140;9.234;2024-03-06T09:40:38;14.23;;;11.50;;
20445;SDS011;10382;49.140;9.234;2024-03-06T09:43:06;20.17;;;14.00;;
20445;SDS011;10382;49.140;9.234;2024-03-06T09:45:34;15.50;;;11.70;;
20445;SDS011;10382;49.140;9.234;2024-03-06T09:48:04;26.13;;;11.67;;
20445;SDS011;10382;49.140;9.234;2024-03-06T09:50:32;17.53;;;13.07;;
20445;SDS011;10382;49.140;9.234;2024-03-06T09:53:03;16.87;;;11.73;;
20445;SDS011;10382;49.140;9.234;2024-03-06T09:55:32;16.93;;;11.93;;
20445;SDS011;10382;49.140;9.234;2024-03-06T09:58:02;19.63;;;12.33;;
20445;SDS011;10382;49.140;9.234;2024-03-06T10:00:30;18.00;;;13.63;;
20445;SDS011;10382;49.140;9.234;2024-03-06T10:02:59;21.63;;;12.90;;
20445;SDS011;10382;49.140;9.234;2024-03-06T10:05:27;21.53;;;15.83;;
20445;SDS011;10382;49.140;9.234;2024-03-06T10:07:55;18.50;;;13.97;;
20445;SDS011;10382;49.140;9.234;2024-03-06T10:10:24;27.30;;;15.40;;
20445;SDS011;10382;49.140;9.234;2024-03-06T10:12:51;20.37;;;13.80;;
20445;SDS011;10382;49.140;9.234;2024-03-06T10:15:19;20.57;;;14.70;;
20445;SDS011;10382;49.140;9.234;2024-03-06T10:17:46;25.07;;;15.80;;
20445;SDS011;10382;49.140;9.234;2024-03-06T10:20:17;22.93;;;16.10;;
20445;SDS011;10382;49.140;9.234;2024-03-06T10:22:46;29.60;;;17.80;;
20445;SDS011;10382;49.140;9.234;2024-03-06T10:25:14;23.53;;;16.23;;
20445;SDS011;10382;49.140;9.234;2024-03-06T10:27:43;21.70;;;15.97;;
20445;SDS011;10382;49.140;9.234;2024-03-06T10:30:11;25.00;;;17.13;;
20445;SDS011;10382;49.140;9.234;2024-03-06T10:32:39;20.10;;;15.73;;
20445;SDS011;10382;49.140;9.234;2024-03-06T10:35:08;24.20;;;16.70;;
20445;SDS011;10382;49.140;9.234;2024-03-06T10:37:47;23.30;;;16.50;;
20445;SDS011;10382;49.140;9.234;2024-03-06T10:40:15;27.77;;;18.90;;
20445;SDS011;10382;49.140;9.234;2024-03-06T10:42:44;22.43;;;17.70;;
20445;SDS011;10382;49.140;9.234;2024-03-06T10:45:12;23.27;;;17.57;;
20445;SDS011;10382;49.140;9.234;2024-03-06T10:47:41;24.50;;;17.27;;
20445;SDS011;10382;49.140;9.234;2024-03-06T10:50:12;24.33;;;16.87;;
20445;SDS011;10382;49.140;9.234;2024-03-06T10:52:41;29.43;;;17.20;;
20445;SDS011;10382;49.140;9.234;2024-03-06T10:55:11;21.60;;;15.87;;
20445;SDS011;10382;49.140;9.234;2024-03-06T10:57:39;25.10;;;17.27;;
20445;SDS011;10382;49.140;9.234;2024-03-06T11:00:09;29.23;;;17.30;;
20445;SDS011;10382;49.140;9.234;2024-03-06T11:02:41;34.07;;;17.63;;
20445;SDS011;10382;49.140;9.234;2024-03-06T11:05:09;20.33;;;15.83;;
20445;SDS011;10382;49.140;9.234;2024-03-06T11:07:37;24.40;;;17.37;;
20445;SDS011;10382;49.140;9.234;2024-03-06T11:10:04;25.47;;;17.00;;
20445;SDS011;10382;49.140;9.234;2024-03-06T11:12:34;24.47;;;16.13;;
20445;SDS011;10382;49.140;9.234;2024-03-06T11:15:08;19.47;;;14.60;;
20445;SDS011;10382;49.140;9.234;2024-03-06T11:17:36;21.70;;;15.73;;
20445;SDS011;10382;49.140;9.234;2024-03-06T11:20:12;24.03;;;17.80;;
20445;SDS011;10382;49.140;9.234;2024-03-06T11:23:01;24.23;;;16.20;;
20445;SDS011;10382;49.140;9.234;2024-03-06T11:28:31;26.90;;;16.67;;
20445;SDS011;10382;49.140;9.234;2024-03-06T11:31:00;30.73;;;19.80;;
20445;SDS011;10382;49.140;9.234;2024-03-06T11:33:28;37.23;;;21.90;;
20445;SDS011;10382;49.140;9.234;2024-03-06T11:36:17;28.00;;;18.30;;
20445;SDS011;10382;49.140;9.234;2024-03-06T11:38:51;31.87;;;18.60;;
20445;SDS011;10382;49.140;9.234;2024-03-06T11:41:19;28.63;;;19.57;;
20445;SDS011;10382;49.140;9.234;2024-03-06T11:43:49;28.00;;;19.53;;
20445;SDS011;10382;49.140;9.234;2024-03-06T11:46:18;24.83;;;17.90;;
20445;SDS011;10382;49.140;9.234;2024-03-06T11:48:51;24.83;;;17.17;;
20445;SDS011;10382;49.140;9.234;2024-03-06T11:51:19;34.83;;;20.40;;
20445;SDS011;10382;49.140;9.234;2024-03-06T11:53:46;24.07;;;18.93;;
20445;SDS011;10382;49.140;9.234;2024-03-06T11:56:16;33.67;;;20.70;;
20445;SDS011;10382;49.140;9.234;2024-03-06T11:58:44;27.30;;;18.60;;
20445;SDS011;10382;49.140;9.234;2024-03-06T12:01:13;27.03;;;18.30;;
20445;SDS011;10382;49.140;9.234;2024-03-06T12:03:41;23.57;;;16.30;;
20445;SDS011;10382;49.140;9.234;2024-03-06T12:06:08;22.53;;;15.17;;
20445;SDS011;10382;49.140;9.234;2024-03-06T12:08:35;27.97;;;17.77;;
20445;SDS011;10382;49.140;9.234;2024-03-06T12:11:04;24.43;;;17.43;;
20445;SDS011;10382;49.140;9.234;2024-03-06T12:13:32;23.07;;;15.77;;
20445;SDS011;10382;49.140;9.234;2024-03-06T12:16:03;24.67;;;16.13;;
20445;SDS011;10382;49.140;9.234;2024-03-06T12:18:33;31.50;;;18.60;;
20445;SDS011;10382;49.140;9.234;2024-03-06T12:21:00;22.97;;;16.33;;
20445;SDS011;10382;49.140;9.234;2024-03-06T12:23:28;25.10;;;15.60;;
20445;SDS011;10382;49.140;9.234;2024-03-06T12:26:05;28.80;;;18.17;;
20445;SDS011;10382;49.140;9.234;2024-03-06T12:28:34;27.20;;;17.43;;
20445;SDS011;10382;49.140;9.234;2024-03-06T12:31:02;24.17;;;16.33;;
20445;SDS011;10382;49.140;9.234;2024-03-06T12:33:29;25.50;;;17.43;;
20445;SDS011;10382;49.140;9.234;2024-03-06T12:36:05;25.03;;;16.57;;
20445;SDS011;10382;49.140;9.234;2024-03-06T12:38:35;25.33;;;16.53;;
20445;SDS011;10382;49.140;9.234;2024-03-06T12:41:02;23.87;;;17.03;;
20445;SDS011;10382;49.140;9.234;2024-03-06T12:43:31;23.53;;;16.30;;
20445;SDS011;10382;49.140;9.234;2024-03-06T12:45:59;30.03;;;19.73;;
20445;SDS011;10382;49.140;9.234;2024-03-06T12:48:27;26.80;;;19.30;;
20445;SDS011;10382;49.140;9.234;2024-03-06T12:50:55;23.50;;;17.30;;
20445;SDS011;10382;49.140;9.234;2024-03-06T12:53:31;23.30;;;15.57;;
20445;SDS011;10382;49.140;9.234;2024-03-06T12:55:58;26.23;;;15.93;;
20445;SDS011;10382;49.140;9.234;2024-03-06T12:58:25;26.20;;;18.10;;
20445;SDS011;10382;49.140;9.234;2024-03-06T13:00:51;28.70;;;16.53;;
20445;SDS011;10382;49.140;9.234;2024-03-06T13:03:19;28.50;;;17.97;;
20445;SDS011;10382;49.140;9.234;2024-03-06T13:05:46;25.90;;;15.57;;
20445;SDS011;10382;49.140;9.234;2024-03-06T13:08:13;27.87;;;18.20;;
20445;SDS011;10382;49.140;9.234;2024-03-06T13:10:41;23.13;;;16.37;;
20445;SDS011;10382;49.140;9.234;2024-03-06T13:13:10;27.00;;;17.80;;
20445;SDS011;10382;49.140;9.234;2024-03-06T13:15:37;38.00;;;18.43;;
20445;SDS011;10382;49.140;9.234;2024-03-06T13:18:04;30.47;;;19.67;;
20445;SDS011;10382;49.140;9.234;2024-03-06T13:20:31;32.00;;;21.20;;
20445;SDS011;10382;49.140;9.234;2024-03-06T13:22:59;26.53;;;18.87;;
20445;SDS011;10382;49.140;9.234;2024-03-06T13:25:26;38.63;;;19.50;;
20445;SDS011;10382;49.140;9.234;2024-03-06T13:27:55;34.47;;;20.40;;
20445;SDS011;10382;49.140;9.234;2024-03-06T13:30:22;32.80;;;20.07;;
20445;SDS011;10382;49.140;9.234;2024-03-06T13:32:49;26.27;;;17.83;;
20445;SDS011;10382;49.140;9.234;2024-03-06T13:35:16;24.13;;;19.17;;
20445;SDS011;10382;49.140;9.234;2024-03-06T13:37:43;31.53;;;17.53;;
20445;SDS011;10382;49.140;9.234;2024-03-06T13:40:11;25.80;;;17.77;;
20445;SDS011;10382;49.140;9.234;2024-03-06T13:42:38;26.97;;;18.63;;
20445;SDS011;10382;49.140;9.234;2024-03-06T13:45:08;26.70;;;19.10;;
20445;SDS011;10382;49.140;9.234;2024-03-06T13:47:36;28.33;;;18.77;;
20445;SDS011;10382;49.140;9.234;2024-03-06T13:50:05;24.57;;;17.67;;
20445;SDS011;10382;49.140;9.234;2024-03-06T13:52:33;30.53;;;17.30;;
20445;SDS011;10382;49.140;9.234;2024-03-06T13:55:00;26.40;;;18.20;;
20445;SDS011;10382;49.140;9.234;2024-03-06T13:57:29;25.40;;;16.83;;
20445;SDS011;10382;49.140;9.234;2024-03-06T13:59:58;27.70;;;17.10;;
20445;SDS011;10382;49.140;9.234;2024-03-06T14:02:27;18.63;;;14.70;;
20445;SDS011;10382;49.140;9.234;2024-03-06T14:04:54;23.03;;;15.60;;
20445;SDS011;10382;49.140;9.234;2024-03-06T14:07:21;27.53;;;16.73;;
20445;SDS011;10382;49.140;9.234;2024-03-06T14:09:48;23.20;;;15.93;;
20445;SDS011;10382;49.140;9.234;2024-03-06T14:12:15;23.23;;;17.43;;
20445;SDS011;10382;49.140;9.234;2024-03-06T14:14:42;21.70;;;15.43;;
20445;SDS011;10382;49.140;9.234;2024-03-06T14:17:10;24.50;;;16.20;;
20445;SDS011;10382;49.140;9.234;2024-03-06T14:19:38;26.73;;;16.43;;
20445;SDS011;10382;49.140;9.234;2024-03-06T14:22:06;24.57;;;15.03;;
20445;SDS011;10382;49.140;9.234;2024-03-06T14:24:33;25.40;;;16.60;;
20445;SDS011;10382;49.140;9.234;2024-03-06T14:27:00;27.17;;;17.00;;
20445;SDS011;10382;49.140;9.234;2024-03-06T14:29:27;33.60;;;16.67;;
20445;SDS011;10382;49.140;9.234;2024-03-06T14:31:54;29.90;;;18.00;;
20445;SDS011;10382;49.140;9.234;2024-03-06T14:34:21;29.57;;;17.77;;
20445;SDS011;10382;49.140;9.234;2024-03-06T14:36:50;29.70;;;18.30;;